Stations météo

réclame
Mon MeteoGroup
Edinburgh, Grande-Bretagne (3160): Température de l'air & dewpoint: 11.01.2021 03:00:00 - 17.01.2021 03:00:00 (GMT)Edinburgh, Grande-Bretagne (3160): Vitesse du vent: 11.01.2021 03:00:00 - 17.01.2021 03:00:00 (GMT)Edinburgh, Grande-Bretagne (3160): Direction du vent: 11.01.2021 03:00:00 - 17.01.2021 03:00:00 (GMT)Edinburgh, Grande-Bretagne (3160): visibility: 11.01.2021 03:00:00 - 17.01.2021 03:00:00 (GMT)
Date & Time tt [°C] td [°C] ff [km/h] ff [knt] dd vv [km]
17.01.2021 03:00:00 3,0 1,0 18 10 WSW 10
17.01.2021 02:00:00 4,0 2,0 22 12 WSW 10
17.01.2021 01:00:00 4,0 2,0 18 10 WSW 10
17.01.2021 00:00:00 4,0 2,0 16 9 WSW 10
16.01.2021 23:00:00 4,0 2,0 15 8 WSW 10
16.01.2021 22:00:00 4,0 2,0 15 8 WSW 10
16.01.2021 21:00:00 5,0 2,0 21 11 WSW 10
16.01.2021 20:00:00 5,0 2,0 24 13 WSW 10
16.01.2021 19:00:00 5,0 2,0 26 14 WSW 10
16.01.2021 18:00:00 6,0 3,0 22 12 WSW 10
16.01.2021 17:00:00 7,0 3,0 26 14 W 10
16.01.2021 16:00:00 7,0 4,0 28 15 W 10
16.01.2021 15:00:00 8,0 5,0 29 16 W 10
16.01.2021 14:00:00 8,0 6,0 24 13 WSW 10
16.01.2021 13:00:00 9,0 6,0 31 17 W 10
16.01.2021 12:00:00 9,0 7,0 28 15 WSW 10
16.01.2021 11:00:00 8,0 6,0 26 14 SW 10
16.01.2021 10:00:00 7,0 6,0 28 15 SW 10
16.01.2021 09:00:00 7,0 5,0 22 12 SSW 10
16.01.2021 08:00:00 5,0 3,0 16 9 WSW 10
16.01.2021 07:00:00 5,0 3,0 28 15 SW 10
16.01.2021 06:00:00 6,0 3,0 28 15 SSW 10
16.01.2021 05:00:00 4,0 2,0 4 2 - 8
16.01.2021 04:00:00 4,0 2,0 9 5 ESE 9
16.01.2021 03:00:00 3,0 2,0 16 9 SE 9
16.01.2021 02:00:00 2,0 1,0 4 2 - 6
16.01.2021 01:00:00 2,0 1,0 13 7 E 9
16.01.2021 00:00:00 2,0 0,0 13 7 ESE 9
15.01.2021 23:00:00 2,0 -1,0 5 3 - 10
15.01.2021 22:00:00 1,0 0,0 15 8 E 10
15.01.2021 21:00:00 -1,0 -1,0 4 2 - 10
15.01.2021 20:00:00 -1,0 -2,0 5 3 - 10
15.01.2021 19:00:00 -1,0 -2,0 4 2 - 8
15.01.2021 18:00:00 -1,0 -2,0 4 2 ESE 10
15.01.2021 17:00:00 1,0 0,0 4 2 - 10
15.01.2021 16:00:00 2,0 0,0 2 1 - 10
15.01.2021 15:00:00 3,0 1,0 8 4 SSW 10
15.01.2021 14:00:00 3,0 1,0 4 2 SSW 10
15.01.2021 13:00:00 3,0 1,0 5 3 SSW 10
15.01.2021 12:00:00 3,0 2,0 16 9 SSW 10
15.01.2021 11:00:00 3,0 2,0 8 4 SW 10
15.01.2021 10:00:00 2,0 1,0 2 1 N 10
15.01.2021 09:00:00 2,0 1,0 8 4 W 10
15.01.2021 08:00:00 1,0 1,0 9 5 WSW 10
15.01.2021 07:00:00 1,0 1,0 2 1 WSW 10
15.01.2021 06:00:00 1,0 0,0 8 4 SW 10
15.01.2021 05:00:00 0,0 0,0 8 4 WSW 10
15.01.2021 04:00:00 0,0 0,0 0 0 N 10
15.01.2021 03:00:00 0,0 0,0 0 0 N 10
15.01.2021 02:00:00 -2,0 -2,0 0 0 N 10
15.01.2021 01:00:00 -1,0 -1,0 5 3 WNW 10
15.01.2021 00:00:00 -1,0 -1,0 4 2 - 10
14.01.2021 23:00:00 0,0 0,0 4 2 SSW 10
14.01.2021 22:00:00 0,0 0,0 4 2 WSW 2,9
14.01.2021 21:00:00 1,0 1,0 5 3 WSW 10
14.01.2021 20:00:00 1,0 0,0 5 3 WSW 10
14.01.2021 19:00:00 1,0 1,0 4 2 - 10
14.01.2021 18:00:00 1,0 1,0 2 1 NNE 1,0
14.01.2021 17:00:00 2,0 2,0 0 0 N 6
14.01.2021 16:00:00 3,0 2,0 4 2 NE 10
14.01.2021 15:00:00 3,0 2,0 8 4 E 10
14.01.2021 14:00:00 3,0 3,0 8 4 E 10
14.01.2021 13:00:00 3,0 3,0 8 4 E 10
14.01.2021 12:00:00 3,0 3,0 9 5 ENE 10
14.01.2021 11:00:00 3,0 3,0 9 5 NE 10
14.01.2021 10:00:00 3,0 2,0 13 7 ENE 10
14.01.2021 09:00:00 2,0 2,0 16 9 ENE 10
14.01.2021 08:00:00 2,0 2,0 16 9 ENE 8
14.01.2021 07:00:00 2,0 1,0 16 9 ENE 5
14.01.2021 06:00:00 2,0 2,0 16 9 ENE 4,9
14.01.2021 05:00:00 2,0 2,0 15 8 ENE 6
14.01.2021 04:00:00 2,0 2,0 16 9 ENE 7
14.01.2021 03:00:00 2,0 2,0 15 8 ENE 9
14.01.2021 02:00:00 2,0 1,0 16 9 ENE 8
14.01.2021 01:00:00 2,0 1,0 16 9 ENE 9
14.01.2021 00:00:00 1,0 1,0 15 8 ENE 10
13.01.2021 23:00:00 1,0 1,0 15 8 ENE 10
13.01.2021 22:00:00 1,0 1,0 15 8 ENE 7
13.01.2021 21:00:00 2,0 1,0 13 7 ENE 9
13.01.2021 20:00:00 1,0 1,0 11 6 ENE 7
13.01.2021 19:00:00 1,0 1,0 8 4 ENE 6
13.01.2021 18:00:00 1,0 1,0 11 6 ENE 5
13.01.2021 17:00:00 1,0 0,0 0 0 N 1,6
13.01.2021 16:00:00 1,0 0,0 4 2 - 3,5
13.01.2021 15:00:00 1,0 0,0 4 2 NNW 5
13.01.2021 14:00:00 1,0 0,0 0 0 N 7
13.01.2021 13:00:00 1,0 0,0 2 1 N 9
13.01.2021 12:00:00 0,0 0,0 0 0 N 10
13.01.2021 11:00:00 0,0 -1,0 0 0 N 10
13.01.2021 10:00:00 -1,0 -1,0 4 2 NNE 10
13.01.2021 09:00:00 -2,0 -3,0 4 2 - 10
13.01.2021 08:00:00 -3,0 -3,0 4 2 - 10
13.01.2021 07:00:00 -2,0 -3,0 4 2 - 10
13.01.2021 06:00:00 -2,0 -3,0 4 2 SSE 10
13.01.2021 05:00:00 -1,0 -2,0 4 2 S 10
13.01.2021 04:00:00 -1,0 -3,0 4 2 WSW 10
13.01.2021 03:00:00 -2,0 -3,0 5 3 WSW 10
13.01.2021 02:00:00 -1,0 -3,0 5 3 W 10
13.01.2021 01:00:00 -1,0 -2,0 5 3 W 10
13.01.2021 00:00:00 -2,0 -3,0 8 4 WSW 10
12.01.2021 23:00:00 -1,0 -2,0 5 3 W 10
12.01.2021 22:00:00 -2,0 -3,0 2 1 SW 10
12.01.2021 21:00:00 -2,0 -3,0 5 3 WSW 10
12.01.2021 20:00:00 -1,0 -2,0 9 5 WSW 10
12.01.2021 19:00:00 -1,0 -2,0 8 4 W 10
12.01.2021 18:00:00 -1,0 -2,0 5 3 WSW 10
12.01.2021 17:00:00 0,0 -2,0 9 5 WSW 10
12.01.2021 16:00:00 1,0 -1,0 9 5 WSW 10
12.01.2021 15:00:00 1,0 -1,0 11 6 WSW 10
12.01.2021 14:00:00 - - - - - -
12.01.2021 13:00:00 3,0 0,0 9 5 WSW 10
12.01.2021 12:00:00 2,0 0,0 8 4 SW 10
12.01.2021 11:00:00 1,0 -1,0 9 5 WSW 10
12.01.2021 10:00:00 -1,0 -2,0 0 0 N 10
12.01.2021 09:00:00 -2,0 -3,0 0 0 N 10
12.01.2021 08:00:00 -2,0 -3,0 0 0 N 10
12.01.2021 07:00:00 -3,0 -3,0 0 0 N 10
12.01.2021 06:00:00 -2,0 -2,0 0 0 N 10
12.01.2021 05:00:00 -2,0 -2,0 0 0 N 10
12.01.2021 04:00:00 -2,0 -2,0 0 0 N 10
12.01.2021 03:00:00 -1,0 -1,0 0 0 N 0,9
12.01.2021 02:00:00 -1,0 -1,0 0 0 N 0,5
12.01.2021 01:00:00 -1,0 -1,0 5 3 - 2,6
12.01.2021 00:00:00 1,0 1,0 2 1 - 10
11.01.2021 23:00:00 2,0 1,0 4 2 E 10
11.01.2021 22:00:00 2,0 1,0 9 5 ENE 5
11.01.2021 21:00:00 2,0 2,0 16 9 ENE 5
11.01.2021 20:00:00 3,0 2,0 18 10 ENE 4,0
11.01.2021 19:00:00 4,0 3,0 24 13 ENE 10
11.01.2021 18:00:00 9,0 6,0 22 12 WSW 10
11.01.2021 17:00:00 9,0 6,0 28 15 W 10
11.01.2021 16:00:00 10,0 6,0 34 18 W 10
11.01.2021 15:00:00 10,0 7,0 37 20 W 10
11.01.2021 14:00:00 10,0 8,0 34 18 W 10
11.01.2021 13:00:00 10,0 9,0 39 21 WSW 10
11.01.2021 12:00:00 9,0 8,0 34 18 WSW 6
11.01.2021 11:00:00 8,0 7,0 28 15 WSW 5
11.01.2021 10:00:00 8,0 7,0 34 18 WSW 5
11.01.2021 09:00:00 7,0 6,0 35 19 WSW 10
11.01.2021 08:00:00 7,0 6,0 31 17 WSW 10
11.01.2021 07:00:00 8,0 6,0 26 14 SW 10
11.01.2021 06:00:00 8,0 5,0 28 15 WSW 10
11.01.2021 05:00:00 8,0 6,0 34 18 WSW 10
11.01.2021 04:00:00 7,0 6,0 29 16 WSW 9
11.01.2021 03:00:00 7,0 6,0 34 18 SW 10

tt = Température de l'air
td = dewpoint
ff = Vitesse du vent
dd = Direction du vent
vv = visibility

stations d'obs. à proximité